This is the latest recevied weather packets stored in our database for station/object WB4MOZ-3. If no packets are shown the sender has not sent any weather packets the latest 1 day(s).
| Time | Temp. | Humidity | Pressure | Rain* | Wind** | Luminosity | Snow |
|---|---|---|---|---|---|---|---|
| 1778003567 | 30.56° C | 62% | 1013.5 hPa | 0 mm | 3.58 m/s, 88° | - | - |
| 1778003269 | 30.56° C | 64% | 1013.5 hPa | 0 mm | 2.24 m/s, 72° | - | - |
| 1778002967 | 30.56° C | 63% | 1013.6 hPa | 0 mm | 3.58 m/s, 96° | - | - |
| 1778002668 | 30° C | 64% | 1013.6 hPa | 0 mm | 4.47 m/s, 98° | - | - |
| 1778002368 | 30° C | 64% | 1013.5 hPa | 0 mm | 3.13 m/s, 55° | - | - |
| 1778002068 | 30.56° C | 64% | 1013.5 hPa | 0 mm | 2.68 m/s, 66° | - | - |
| 1778001767 | 30° C | 64% | 1013.5 hPa | 0 mm | 4.02 m/s, 72° | - | - |
| 1778001468 | 30.56° C | 63% | 1013.6 hPa | 0 mm | 3.58 m/s, 87° | - | - |
| 1778001167 | 30° C | 65% | 1013.6 hPa | 0 mm | 4.02 m/s, 87° | - | - |
| 1778000867 | 30° C | 65% | 1013.7 hPa | 0 mm | 3.13 m/s, 69° | - | - |
| 1778000568 | 30° C | 67% | 1013.7 hPa | 0 mm | 3.13 m/s, 66° | - | - |
| 1778000267 | 29.44° C | 67% | 1013.7 hPa | 0 mm | 2.68 m/s, 79° | - | - |
| 1777999967 | 30° C | 65% | 1013.8 hPa | 0 mm | 3.13 m/s, 75° | - | - |
| 1777999667 | 31.11° C | 65% | 1013.7 hPa | 0 mm | 2.68 m/s, 47° | - | - |
| 1777999367 | 30.56° C | 64% | 1013.8 hPa | 0 mm | 3.58 m/s, 98° | - | - |
| 1777999067 | 30.56° C | 66% | 1013.9 hPa | 0 mm | 3.58 m/s, 97° | - | - |
| 1777998767 | 30.56° C | 66% | 1013.8 hPa | 0 mm | 3.58 m/s, 101° | - | - |
| 1777998467 | 30.56° C | 65% | 1013.8 hPa | 0 mm | 3.13 m/s, 97° | - | - |
| 1777998167 | 30° C | 66% | 1013.9 hPa | 0 mm | 2.68 m/s, 83° | - | - |
| 1777997867 | 30° C | 65% | 1014 hPa | 0 mm | 2.24 m/s, 49° | - | - |
| 1777997568 | 30° C | 64% | 1014 hPa | 0 mm | 3.13 m/s, 66° | - | - |
| 1777997267 | 30° C | 66% | 1014 hPa | 0 mm | 1.34 m/s, 74° | - | - |
| 1777996967 | 28.89° C | 68% | 1014 hPa | 0 mm | 3.13 m/s, 92° | - | - |
| 1777996667 | 28.89° C | 68% | 1013.9 hPa | 0 mm | 3.58 m/s, 79° | - | - |
| 1777996367 | 29.44° C | 66% | 1013.9 hPa | 0 mm | 4.47 m/s, 97° | - | - |
* Rain latest hour (hover to see other rain measurements)
** Current wind speed in m/s (hover to see current wind gust speed)